sensor_id;sensor_type;location;lat;lon;timestamp;P1;durP1;ratioP1;P2;durP2;ratioP2
79664;SDS011;69132;44.014;20.918;2024-03-08T00:00:14;11.07;;;10.07;;
79664;SDS011;69132;44.014;20.918;2024-03-08T00:02:43;11.25;;;9.55;;
79664;SDS011;69132;44.014;20.918;2024-03-08T00:05:10;11.93;;;10.13;;
79664;SDS011;69132;44.014;20.918;2024-03-08T00:07:38;12.05;;;9.52;;
79664;SDS011;69132;44.014;20.918;2024-03-08T00:10:05;10.70;;;9.60;;
79664;SDS011;69132;44.014;20.918;2024-03-08T00:15:39;10.07;;;8.70;;
79664;SDS011;69132;44.014;20.918;2024-03-08T00:18:06;10.02;;;8.38;;
79664;SDS011;69132;44.014;20.918;2024-03-08T00:20:32;11.27;;;9.63;;
79664;SDS011;69132;44.014;20.918;2024-03-08T00:22:58;11.40;;;9.90;;
79664;SDS011;69132;44.014;20.918;2024-03-08T00:25:24;14.90;;;10.32;;
79664;SDS011;69132;44.014;20.918;2024-03-08T00:27:55;11.45;;;10.07;;
79664;SDS011;69132;44.014;20.918;2024-03-08T00:30:24;14.82;;;9.65;;
79664;SDS011;69132;44.014;20.918;2024-03-08T00:32:50;12.68;;;10.07;;
79664;SDS011;69132;44.014;20.918;2024-03-08T00:38:20;10.57;;;8.88;;
79664;SDS011;69132;44.014;20.918;2024-03-08T00:40:46;11.05;;;8.77;;
79664;SDS011;69132;44.014;20.918;2024-03-08T00:43:13;10.25;;;9.15;;
79664;SDS011;69132;44.014;20.918;2024-03-08T00:45:40;10.73;;;9.45;;
79664;SDS011;69132;44.014;20.918;2024-03-08T00:48:08;12.00;;;9.68;;
79664;SDS011;69132;44.014;20.918;2024-03-08T00:50:34;10.27;;;8.93;;
79664;SDS011;69132;44.014;20.918;2024-03-08T00:53:00;8.98;;;8.07;;
79664;SDS011;69132;44.014;20.918;2024-03-08T00:55:27;9.57;;;7.80;;
79664;SDS011;69132;44.014;20.918;2024-03-08T00:57:54;9.00;;;8.02;;
79664;SDS011;69132;44.014;20.918;2024-03-08T01:00:21;10.60;;;8.80;;
79664;SDS011;69132;44.014;20.918;2024-03-08T01:05:19;9.98;;;8.43;;
79664;SDS011;69132;44.014;20.918;2024-03-08T01:07:48;9.05;;;8.15;;
79664;SDS011;69132;44.014;20.918;2024-03-08T01:10:16;8.93;;;7.78;;
79664;SDS011;69132;44.014;20.918;2024-03-08T01:12:42;8.60;;;7.70;;
79664;SDS011;69132;44.014;20.918;2024-03-08T01:15:14;9.85;;;8.85;;
79664;SDS011;69132;44.014;20.918;2024-03-08T01:17:40;8.55;;;7.75;;
79664;SDS011;69132;44.014;20.918;2024-03-08T01:20:06;9.35;;;7.93;;
79664;SDS011;69132;44.014;20.918;2024-03-08T01:22:40;9.30;;;8.32;;
79664;SDS011;69132;44.014;20.918;2024-03-08T01:25:06;9.90;;;7.57;;
79664;SDS011;69132;44.014;20.918;2024-03-08T01:27:35;10.65;;;8.30;;
79664;SDS011;69132;44.014;20.918;2024-03-08T01:30:02;8.90;;;8.00;;
79664;SDS011;69132;44.014;20.918;2024-03-08T01:32:29;8.57;;;7.50;;
79664;SDS011;69132;44.014;20.918;2024-03-08T01:34:55;7.75;;;6.95;;
79664;SDS011;69132;44.014;20.918;2024-03-08T01:39:55;8.45;;;7.18;;
79664;SDS011;69132;44.014;20.918;2024-03-08T01:42:21;8.63;;;7.72;;
79664;SDS011;69132;44.014;20.918;2024-03-08T01:44:48;11.15;;;8.98;;
79664;SDS011;69132;44.014;20.918;2024-03-08T01:47:17;10.70;;;8.25;;
79664;SDS011;69132;44.014;20.918;2024-03-08T01:49:43;9.65;;;8.38;;
79664;SDS011;69132;44.014;20.918;2024-03-08T01:52:10;10.25;;;9.25;;
79664;SDS011;69132;44.014;20.918;2024-03-08T01:54:36;10.07;;;8.20;;
79664;SDS011;69132;44.014;20.918;2024-03-08T01:57:03;8.82;;;7.90;;
79664;SDS011;69132;44.014;20.918;2024-03-08T01:59:30;9.80;;;8.55;;
79664;SDS011;69132;44.014;20.918;2024-03-08T02:01:57;10.10;;;8.95;;
79664;SDS011;69132;44.014;20.918;2024-03-08T02:04:27;9.57;;;8.68;;
79664;SDS011;69132;44.014;20.918;2024-03-08T02:06:53;8.65;;;7.45;;
79664;SDS011;69132;44.014;20.918;2024-03-08T02:09:19;8.57;;;7.70;;
79664;SDS011;69132;44.014;20.918;2024-03-08T02:11:45;8.65;;;7.65;;
79664;SDS011;69132;44.014;20.918;2024-03-08T02:14:12;7.40;;;6.55;;
79664;SDS011;69132;44.014;20.918;2024-03-08T02:16:39;8.23;;;6.32;;
79664;SDS011;69132;44.014;20.918;2024-03-08T02:19:05;6.80;;;5.47;;
79664;SDS011;69132;44.014;20.918;2024-03-08T02:21:36;6.43;;;5.75;;
79664;SDS011;69132;44.014;20.918;2024-03-08T02:24:03;7.55;;;5.80;;
79664;SDS011;69132;44.014;20.918;2024-03-08T02:26:30;6.65;;;5.95;;
79664;SDS011;69132;44.014;20.918;2024-03-08T02:28:56;9.35;;;7.00;;
79664;SDS011;69132;44.014;20.918;2024-03-08T02:31:22;8.52;;;6.70;;
79664;SDS011;69132;44.014;20.918;2024-03-08T02:36:19;9.20;;;6.97;;
79664;SDS011;69132;44.014;20.918;2024-03-08T02:38:46;9.52;;;7.32;;
79664;SDS011;69132;44.014;20.918;2024-03-08T02:41:15;9.75;;;7.30;;
79664;SDS011;69132;44.014;20.918;2024-03-08T02:43:41;6.25;;;5.38;;
79664;SDS011;69132;44.014;20.918;2024-03-08T02:46:12;6.47;;;5.53;;
79664;SDS011;69132;44.014;20.918;2024-03-08T02:48:38;7.88;;;5.63;;
79664;SDS011;69132;44.014;20.918;2024-03-08T02:51:04;6.90;;;5.63;;
79664;SDS011;69132;44.014;20.918;2024-03-08T02:53:32;5.00;;;4.50;;
79664;SDS011;69132;44.014;20.918;2024-03-08T02:55:58;7.30;;;5.50;;
79664;SDS011;69132;44.014;20.918;2024-03-08T02:58:24;4.55;;;4.15;;
79664;SDS011;69132;44.014;20.918;2024-03-08T03:00:51;5.97;;;4.57;;
79664;SDS011;69132;44.014;20.918;2024-03-08T03:03:18;5.45;;;4.60;;
79664;SDS011;69132;44.014;20.918;2024-03-08T03:05:44;6.65;;;4.65;;
79664;SDS011;69132;44.014;20.918;2024-03-08T03:08:10;7.13;;;5.13;;
79664;SDS011;69132;44.014;20.918;2024-03-08T03:10:38;5.35;;;4.85;;
79664;SDS011;69132;44.014;20.918;2024-03-08T03:13:04;5.80;;;4.70;;
79664;SDS011;69132;44.014;20.918;2024-03-08T03:15:31;6.85;;;5.22;;
79664;SDS011;69132;44.014;20.918;2024-03-08T03:17:58;5.07;;;4.55;;
79664;SDS011;69132;44.014;20.918;2024-03-08T03:20:26;5.32;;;4.78;;
79664;SDS011;69132;44.014;20.918;2024-03-08T03:22:57;4.40;;;4.00;;
79664;SDS011;69132;44.014;20.918;2024-03-08T03:25:26;5.65;;;3.95;;
79664;SDS011;69132;44.014;20.918;2024-03-08T03:27:59;7.63;;;5.13;;
79664;SDS011;69132;44.014;20.918;2024-03-08T03:30:26;5.45;;;4.22;;
79664;SDS011;69132;44.014;20.918;2024-03-08T03:32:58;4.78;;;4.32;;
79664;SDS011;69132;44.014;20.918;2024-03-08T03:35:31;5.65;;;5.07;;
79664;SDS011;69132;44.014;20.918;2024-03-08T03:37:59;6.30;;;4.68;;
79664;SDS011;69132;44.014;20.918;2024-03-08T03:40:39;6.28;;;4.70;;
79664;SDS011;69132;44.014;20.918;2024-03-08T03:43:06;6.95;;;5.03;;
79664;SDS011;69132;44.014;20.918;2024-03-08T03:45:34;7.20;;;4.90;;
79664;SDS011;69132;44.014;20.918;2024-03-08T03:48:04;6.55;;;5.18;;
79664;SDS011;69132;44.014;20.918;2024-03-08T03:50:43;4.75;;;4.30;;
79664;SDS011;69132;44.014;20.918;2024-03-08T03:53:09;5.53;;;4.53;;
79664;SDS011;69132;44.014;20.918;2024-03-08T03:55:35;8.25;;;5.40;;
79664;SDS011;69132;44.014;20.918;2024-03-08T03:58:03;6.50;;;5.20;;
79664;SDS011;69132;44.014;20.918;2024-03-08T04:00:29;5.65;;;4.82;;
79664;SDS011;69132;44.014;20.918;2024-03-08T04:02:56;6.03;;;5.43;;
79664;SDS011;69132;44.014;20.918;2024-03-08T04:05:25;6.47;;;5.78;;
79664;SDS011;69132;44.014;20.918;2024-03-08T04:07:51;8.13;;;6.13;;
79664;SDS011;69132;44.014;20.918;2024-03-08T04:10:18;16.50;;;7.53;;
79664;SDS011;69132;44.014;20.918;2024-03-08T04:12:45;8.50;;;7.30;;
79664;SDS011;69132;44.014;20.918;2024-03-08T04:15:11;9.73;;;7.80;;
79664;SDS011;69132;44.014;20.918;2024-03-08T04:17:37;11.10;;;7.72;;
79664;SDS011;69132;44.014;20.918;2024-03-08T04:20:03;17.83;;;8.90;;
79664;SDS011;69132;44.014;20.918;2024-03-08T04:22:37;12.50;;;8.95;;
79664;SDS011;69132;44.014;20.918;2024-03-08T04:25:20;12.82;;;10.18;;
79664;SDS011;69132;44.014;20.918;2024-03-08T04:27:46;13.95;;;10.55;;
79664;SDS011;69132;44.014;20.918;2024-03-08T04:30:14;15.43;;;10.85;;
79664;SDS011;69132;44.014;20.918;2024-03-08T04:32:41;15.43;;;11.80;;
79664;SDS011;69132;44.014;20.918;2024-03-08T04:35:07;14.88;;;11.32;;
79664;SDS011;69132;44.014;20.918;2024-03-08T04:40:38;16.02;;;11.90;;
79664;SDS011;69132;44.014;20.918;2024-03-08T04:43:05;14.88;;;11.65;;
79664;SDS011;69132;44.014;20.918;2024-03-08T04:45:33;16.20;;;11.80;;
79664;SDS011;69132;44.014;20.918;2024-03-08T04:47:59;17.23;;;11.75;;
79664;SDS011;69132;44.014;20.918;2024-03-08T04:50:25;16.33;;;11.80;;
79664;SDS011;69132;44.014;20.918;2024-03-08T04:52:54;19.17;;;12.80;;
79664;SDS011;69132;44.014;20.918;2024-03-08T04:55:20;17.90;;;12.07;;
79664;SDS011;69132;44.014;20.918;2024-03-08T04:57:47;20.88;;;12.70;;
79664;SDS011;69132;44.014;20.918;2024-03-08T05:00:15;20.33;;;12.73;;
79664;SDS011;69132;44.014;20.918;2024-03-08T05:02:41;19.90;;;11.95;;
79664;SDS011;69132;44.014;20.918;2024-03-08T05:07:39;18.75;;;12.85;;
79664;SDS011;69132;44.014;20.918;2024-03-08T05:10:06;17.75;;;11.80;;
79664;SDS011;69132;44.014;20.918;2024-03-08T05:12:33;15.63;;;12.35;;
79664;SDS011;69132;44.014;20.918;2024-03-08T05:15:02;22.52;;;13.95;;
79664;SDS011;69132;44.014;20.918;2024-03-08T05:17:30;18.27;;;11.85;;
79664;SDS011;69132;44.014;20.918;2024-03-08T05:19:56;16.65;;;12.75;;
79664;SDS011;69132;44.014;20.918;2024-03-08T05:22:23;18.70;;;13.27;;
79664;SDS011;69132;44.014;20.918;2024-03-08T05:24:49;17.70;;;12.93;;
79664;SDS011;69132;44.014;20.918;2024-03-08T05:27:17;18.27;;;12.95;;
79664;SDS011;69132;44.014;20.918;2024-03-08T05:29:43;17.52;;;13.05;;
79664;SDS011;69132;44.014;20.918;2024-03-08T05:32:11;16.17;;;11.15;;
79664;SDS011;69132;44.014;20.918;2024-03-08T05:34:37;15.98;;;12.82;;
79664;SDS011;69132;44.014;20.918;2024-03-08T05:37:05;15.88;;;12.57;;
79664;SDS011;69132;44.014;20.918;2024-03-08T05:39:32;19.13;;;14.10;;
79664;SDS011;69132;44.014;20.918;2024-03-08T05:41:59;20.00;;;12.52;;
79664;SDS011;69132;44.014;20.918;2024-03-08T05:44:39;17.08;;;14.07;;
79664;SDS011;69132;44.014;20.918;2024-03-08T05:47:06;18.42;;;13.73;;
79664;SDS011;69132;44.014;20.918;2024-03-08T05:49:34;19.77;;;13.93;;
79664;SDS011;69132;44.014;20.918;2024-03-08T05:52:00;23.02;;;14.38;;
79664;SDS011;69132;44.014;20.918;2024-03-08T05:54:27;21.23;;;14.27;;
79664;SDS011;69132;44.014;20.918;2024-03-08T05:56:53;18.80;;;14.80;;
79664;SDS011;69132;44.014;20.918;2024-03-08T05:59:19;21.70;;;16.65;;
79664;SDS011;69132;44.014;20.918;2024-03-08T06:01:52;28.98;;;16.92;;
79664;SDS011;69132;44.014;20.918;2024-03-08T06:04:21;24.25;;;17.77;;
79664;SDS011;69132;44.014;20.918;2024-03-08T06:06:47;20.23;;;15.88;;
79664;SDS011;69132;44.014;20.918;2024-03-08T06:09:17;23.13;;;14.90;;
79664;SDS011;69132;44.014;20.918;2024-03-08T06:11:51;20.90;;;15.48;;
79664;SDS011;69132;44.014;20.918;2024-03-08T06:14:21;19.23;;;15.15;;
79664;SDS011;69132;44.014;20.918;2024-03-08T06:16:51;26.33;;;16.67;;
79664;SDS011;69132;44.014;20.918;2024-03-08T06:19:17;26.65;;;16.48;;
79664;SDS011;69132;44.014;20.918;2024-03-08T06:21:44;21.05;;;14.55;;
79664;SDS011;69132;44.014;20.918;2024-03-08T06:24:18;24.50;;;17.80;;
79664;SDS011;69132;44.014;20.918;2024-03-08T06:26:44;25.92;;;17.85;;
79664;SDS011;69132;44.014;20.918;2024-03-08T06:29:10;26.05;;;18.85;;
79664;SDS011;69132;44.014;20.918;2024-03-08T06:31:37;25.25;;;17.67;;
79664;SDS011;69132;44.014;20.918;2024-03-08T06:34:04;23.70;;;16.35;;
79664;SDS011;69132;44.014;20.918;2024-03-08T06:36:33;22.27;;;17.70;;
79664;SDS011;69132;44.014;20.918;2024-03-08T06:38:59;22.95;;;16.63;;
79664;SDS011;69132;44.014;20.918;2024-03-08T06:41:25;25.48;;;19.48;;
79664;SDS011;69132;44.014;20.918;2024-03-08T06:43:52;34.88;;;21.13;;
79664;SDS011;69132;44.014;20.918;2024-03-08T06:46:30;36.67;;;21.05;;
79664;SDS011;69132;44.014;20.918;2024-03-08T06:48:57;32.40;;;22.25;;
79664;SDS011;69132;44.014;20.918;2024-03-08T06:53:52;32.03;;;22.70;;
79664;SDS011;69132;44.014;20.918;2024-03-08T06:56:19;25.15;;;18.67;;
79664;SDS011;69132;44.014;20.918;2024-03-08T06:58:46;26.08;;;18.33;;
79664;SDS011;69132;44.014;20.918;2024-03-08T07:01:13;33.55;;;21.35;;
79664;SDS011;69132;44.014;20.918;2024-03-08T07:03:42;31.42;;;20.58;;
79664;SDS011;69132;44.014;20.918;2024-03-08T07:06:10;28.58;;;19.63;;
79664;SDS011;69132;44.014;20.918;2024-03-08T07:08:39;28.10;;;19.58;;
79664;SDS011;69132;44.014;20.918;2024-03-08T07:11:06;35.70;;;20.10;;
79664;SDS011;69132;44.014;20.918;2024-03-08T07:13:35;26.75;;;20.13;;
79664;SDS011;69132;44.014;20.918;2024-03-08T07:16:01;25.77;;;18.83;;
79664;SDS011;69132;44.014;20.918;2024-03-08T07:18:27;22.77;;;18.08;;
79664;SDS011;69132;44.014;20.918;2024-03-08T07:20:59;28.23;;;18.98;;
79664;SDS011;69132;44.014;20.918;2024-03-08T07:26:28;24.35;;;17.73;;
79664;SDS011;69132;44.014;20.918;2024-03-08T07:28:55;24.67;;;18.13;;
79664;SDS011;69132;44.014;20.918;2024-03-08T07:31:22;22.90;;;17.65;;
79664;SDS011;69132;44.014;20.918;2024-03-08T07:33:50;26.10;;;16.77;;
79664;SDS011;69132;44.014;20.918;2024-03-08T07:36:18;23.27;;;18.08;;
79664;SDS011;69132;44.014;20.918;2024-03-08T07:38:52;25.27;;;17.33;;
79664;SDS011;69132;44.014;20.918;2024-03-08T07:41:19;20.80;;;16.02;;
79664;SDS011;69132;44.014;20.918;2024-03-08T07:43:45;20.52;;;15.00;;
79664;SDS011;69132;44.014;20.918;2024-03-08T07:46:15;24.20;;;18.45;;
79664;SDS011;69132;44.014;20.918;2024-03-08T07:48:43;27.65;;;15.65;;
79664;SDS011;69132;44.014;20.918;2024-03-08T07:51:10;21.17;;;15.50;;
79664;SDS011;69132;44.014;20.918;2024-03-08T07:53:41;21.83;;;16.73;;
79664;SDS011;69132;44.014;20.918;2024-03-08T07:56:11;24.10;;;17.77;;
79664;SDS011;69132;44.014;20.918;2024-03-08T07:58:39;21.45;;;17.27;;
79664;SDS011;69132;44.014;20.918;2024-03-08T08:01:15;21.88;;;17.15;;
79664;SDS011;69132;44.014;20.918;2024-03-08T08:03:42;18.95;;;14.98;;
79664;SDS011;69132;44.014;20.918;2024-03-08T08:06:17;18.17;;;14.30;;
79664;SDS011;69132;44.014;20.918;2024-03-08T08:08:50;16.70;;;13.32;;
79664;SDS011;69132;44.014;20.918;2024-03-08T08:11:27;22.65;;;16.13;;
79664;SDS011;69132;44.014;20.918;2024-03-08T08:13:55;20.67;;;14.07;;
79664;SDS011;69132;44.014;20.918;2024-03-08T08:16:24;16.80;;;12.77;;
79664;SDS011;69132;44.014;20.918;2024-03-08T08:18:52;21.33;;;15.63;;
79664;SDS011;69132;44.014;20.918;2024-03-08T08:21:18;19.00;;;14.63;;
79664;SDS011;69132;44.014;20.918;2024-03-08T08:23:48;16.73;;;12.63;;
79664;SDS011;69132;44.014;20.918;2024-03-08T08:26:15;17.30;;;12.82;;
79664;SDS011;69132;44.014;20.918;2024-03-08T08:28:42;18.75;;;13.18;;
79664;SDS011;69132;44.014;20.918;2024-03-08T08:31:09;17.42;;;14.07;;
79664;SDS011;69132;44.014;20.918;2024-03-08T08:33:35;16.80;;;12.77;;
79664;SDS011;69132;44.014;20.918;2024-03-08T08:36:01;16.05;;;11.25;;
79664;SDS011;69132;44.014;20.918;2024-03-08T08:38:28;16.50;;;13.02;;
79664;SDS011;69132;44.014;20.918;2024-03-08T08:40:54;17.05;;;12.80;;
79664;SDS011;69132;44.014;20.918;2024-03-08T08:43:22;18.92;;;14.27;;
79664;SDS011;69132;44.014;20.918;2024-03-08T08:45:50;16.30;;;12.70;;
79664;SDS011;69132;44.014;20.918;2024-03-08T08:50:50;13.88;;;11.75;;
79664;SDS011;69132;44.014;20.918;2024-03-08T08:53:17;15.27;;;12.80;;
79664;SDS011;69132;44.014;20.918;2024-03-08T08:55:44;15.55;;;12.68;;
79664;SDS011;69132;44.014;20.918;2024-03-08T08:58:11;16.17;;;12.38;;
79664;SDS011;69132;44.014;20.918;2024-03-08T09:00:39;18.50;;;15.50;;
79664;SDS011;69132;44.014;20.918;2024-03-08T09:03:06;16.92;;;12.90;;
79664;SDS011;69132;44.014;20.918;2024-03-08T09:05:37;20.88;;;14.77;;
79664;SDS011;69132;44.014;20.918;2024-03-08T09:08:06;14.35;;;11.75;;
79664;SDS011;69132;44.014;20.918;2024-03-08T09:10:33;21.20;;;13.85;;
79664;SDS011;69132;44.014;20.918;2024-03-08T09:13:04;17.63;;;12.73;;
79664;SDS011;69132;44.014;20.918;2024-03-08T09:15:31;18.45;;;14.55;;
79664;SDS011;69132;44.014;20.918;2024-03-08T09:17:57;15.57;;;11.93;;
79664;SDS011;69132;44.014;20.918;2024-03-08T09:20:24;14.63;;;11.80;;
79664;SDS011;69132;44.014;20.918;2024-03-08T09:22:50;15.82;;;11.52;;
79664;SDS011;69132;44.014;20.918;2024-03-08T09:25:16;14.48;;;10.35;;
79664;SDS011;69132;44.014;20.918;2024-03-08T09:27:44;15.27;;;11.07;;
79664;SDS011;69132;44.014;20.918;2024-03-08T09:30:12;14.80;;;11.63;;
79664;SDS011;69132;44.014;20.918;2024-03-08T09:32:40;20.48;;;14.27;;
79664;SDS011;69132;44.014;20.918;2024-03-08T09:35:06;15.77;;;12.73;;
79664;SDS011;69132;44.014;20.918;2024-03-08T09:37:35;19.05;;;10.85;;
79664;SDS011;69132;44.014;20.918;2024-03-08T09:40:02;12.57;;;10.98;;
79664;SDS011;69132;44.014;20.918;2024-03-08T09:42:34;14.75;;;10.50;;
79664;SDS011;69132;44.014;20.918;2024-03-08T09:45:04;17.52;;;12.35;;
79664;SDS011;69132;44.014;20.918;2024-03-08T09:47:35;20.80;;;14.63;;
79664;SDS011;69132;44.014;20.918;2024-03-08T09:50:04;15.65;;;11.95;;
79664;SDS011;69132;44.014;20.918;2024-03-08T09:52:37;14.90;;;11.27;;
79664;SDS011;69132;44.014;20.918;2024-03-08T09:55:05;15.18;;;11.52;;
79664;SDS011;69132;44.014;20.918;2024-03-08T09:57:33;17.98;;;13.05;;
79664;SDS011;69132;44.014;20.918;2024-03-08T09:59:59;12.70;;;9.90;;
79664;SDS011;69132;44.014;20.918;2024-03-08T10:02:26;9.15;;;8.07;;
79664;SDS011;69132;44.014;20.918;2024-03-08T10:04:54;12.43;;;9.30;;
79664;SDS011;69132;44.014;20.918;2024-03-08T10:07:23;13.97;;;9.27;;
79664;SDS011;69132;44.014;20.918;2024-03-08T10:09:51;14.13;;;9.82;;
79664;SDS011;69132;44.014;20.918;2024-03-08T10:12:21;9.45;;;7.70;;
79664;SDS011;69132;44.014;20.918;2024-03-08T10:14:58;10.50;;;8.15;;
79664;SDS011;69132;44.014;20.918;2024-03-08T10:17:27;8.88;;;7.82;;
79664;SDS011;69132;44.014;20.918;2024-03-08T10:19:57;9.73;;;8.10;;
79664;SDS011;69132;44.014;20.918;2024-03-08T10:22:25;10.30;;;9.20;;
79664;SDS011;69132;44.014;20.918;2024-03-08T10:24:54;10.18;;;7.90;;
79664;SDS011;69132;44.014;20.918;2024-03-08T10:27:21;10.85;;;9.10;;
79664;SDS011;69132;44.014;20.918;2024-03-08T10:29:49;12.68;;;9.02;;
79664;SDS011;69132;44.014;20.918;2024-03-08T10:32:16;11.45;;;8.10;;
79664;SDS011;69132;44.014;20.918;2024-03-08T10:34:43;11.52;;;8.15;;
79664;SDS011;69132;44.014;20.918;2024-03-08T10:37:12;7.28;;;6.57;;
79664;SDS011;69132;44.014;20.918;2024-03-08T10:39:38;9.70;;;7.38;;
79664;SDS011;69132;44.014;20.918;2024-03-08T10:42:06;15.43;;;9.33;;
79664;SDS011;69132;44.014;20.918;2024-03-08T10:44:57;11.75;;;8.02;;
79664;SDS011;69132;44.014;20.918;2024-03-08T10:47:26;10.98;;;8.20;;
79664;SDS011;69132;44.014;20.918;2024-03-08T10:50:10;10.27;;;8.10;;
79664;SDS011;69132;44.014;20.918;2024-03-08T10:52:38;12.43;;;7.53;;
79664;SDS011;69132;44.014;20.918;2024-03-08T10:55:05;13.77;;;9.18;;
79664;SDS011;69132;44.014;20.918;2024-03-08T10:57:37;7.72;;;6.55;;
79664;SDS011;69132;44.014;20.918;2024-03-08T11:00:06;8.77;;;6.45;;
79664;SDS011;69132;44.014;20.918;2024-03-08T11:02:35;13.60;;;8.18;;
79664;SDS011;69132;44.014;20.918;2024-03-08T11:05:03;8.18;;;6.80;;
79664;SDS011;69132;44.014;20.918;2024-03-08T11:07:33;9.55;;;7.25;;
79664;SDS011;69132;44.014;20.918;2024-03-08T11:10:03;7.10;;;6.32;;
79664;SDS011;69132;44.014;20.918;2024-03-08T11:12:40;7.38;;;6.22;;
79664;SDS011;69132;44.014;20.918;2024-03-08T11:15:10;10.05;;;7.20;;
79664;SDS011;69132;44.014;20.918;2024-03-08T11:20:08;7.88;;;5.65;;
79664;SDS011;69132;44.014;20.918;2024-03-08T11:22:41;9.57;;;7.28;;
79664;SDS011;69132;44.014;20.918;2024-03-08T11:25:10;7.80;;;6.68;;
79664;SDS011;69132;44.014;20.918;2024-03-08T11:28:10;7.68;;;6.10;;
79664;SDS011;69132;44.014;20.918;2024-03-08T11:30:43;7.97;;;6.35;;
79664;SDS011;69132;44.014;20.918;2024-03-08T11:33:12;7.35;;;6.18;;
79664;SDS011;69132;44.014;20.918;2024-03-08T11:35:39;15.45;;;6.18;;
79664;SDS011;69132;44.014;20.918;2024-03-08T11:38:07;10.05;;;8.00;;
79664;SDS011;69132;44.014;20.918;2024-03-08T11:40:34;6.75;;;5.03;;
79664;SDS011;69132;44.014;20.918;2024-03-08T11:43:00;5.75;;;5.00;;
79664;SDS011;69132;44.014;20.918;2024-03-08T11:45:32;8.13;;;5.57;;
79664;SDS011;69132;44.014;20.918;2024-03-08T11:50:59;6.93;;;5.22;;
79664;SDS011;69132;44.014;20.918;2024-03-08T11:53:26;5.78;;;4.90;;
79664;SDS011;69132;44.014;20.918;2024-03-08T11:55:52;5.18;;;4.68;;
79664;SDS011;69132;44.014;20.918;2024-03-08T11:58:20;7.13;;;5.03;;
79664;SDS011;69132;44.014;20.918;2024-03-08T12:00:46;8.85;;;5.85;;
79664;SDS011;69132;44.014;20.918;2024-03-08T12:03:14;6.78;;;4.80;;
79664;SDS011;69132;44.014;20.918;2024-03-08T12:05:40;7.30;;;5.20;;
79664;SDS011;69132;44.014;20.918;2024-03-08T12:08:08;6.50;;;5.30;;
79664;SDS011;69132;44.014;20.918;2024-03-08T12:10:37;6.93;;;5.30;;
79664;SDS011;69132;44.014;20.918;2024-03-08T12:13:04;5.20;;;4.70;;
79664;SDS011;69132;44.014;20.918;2024-03-08T12:15:37;5.38;;;4.65;;
79664;SDS011;69132;44.014;20.918;2024-03-08T12:18:03;7.82;;;6.40;;
79664;SDS011;69132;44.014;20.918;2024-03-08T12:20:32;7.22;;;6.00;;
79664;SDS011;69132;44.014;20.918;2024-03-08T12:22:58;8.18;;;6.05;;
79664;SDS011;69132;44.014;20.918;2024-03-08T12:25:31;10.38;;;6.68;;
79664;SDS011;69132;44.014;20.918;2024-03-08T12:28:12;6.03;;;4.53;;
79664;SDS011;69132;44.014;20.918;2024-03-08T12:30:46;6.80;;;5.60;;
79664;SDS011;69132;44.014;20.918;2024-03-08T12:33:13;7.03;;;5.50;;
79664;SDS011;69132;44.014;20.918;2024-03-08T12:35:39;8.82;;;6.20;;
79664;SDS011;69132;44.014;20.918;2024-03-08T12:38:07;6.50;;;5.40;;
79664;SDS011;69132;44.014;20.918;2024-03-08T12:40:34;12.02;;;6.10;;
79664;SDS011;69132;44.014;20.918;2024-03-08T12:43:06;7.88;;;6.20;;
79664;SDS011;69132;44.014;20.918;2024-03-08T12:45:33;6.57;;;5.78;;
79664;SDS011;69132;44.014;20.918;2024-03-08T12:48:00;7.43;;;6.38;;
79664;SDS011;69132;44.014;20.918;2024-03-08T12:50:28;7.57;;;6.13;;
79664;SDS011;69132;44.014;20.918;2024-03-08T12:52:56;7.32;;;6.00;;
79664;SDS011;69132;44.014;20.918;2024-03-08T12:55:23;7.57;;;5.78;;
79664;SDS011;69132;44.014;20.918;2024-03-08T12:57:49;6.72;;;5.13;;
79664;SDS011;69132;44.014;20.918;2024-03-08T13:00:19;5.03;;;4.53;;
79664;SDS011;69132;44.014;20.918;2024-03-08T13:02:45;7.22;;;5.63;;
79664;SDS011;69132;44.014;20.918;2024-03-08T13:05:12;6.47;;;5.05;;
79664;SDS011;69132;44.014;20.918;2024-03-08T13:07:39;8.18;;;6.22;;
79664;SDS011;69132;44.014;20.918;2024-03-08T13:10:11;12.10;;;7.25;;
79664;SDS011;69132;44.014;20.918;2024-03-08T13:12:47;7.72;;;6.35;;
79664;SDS011;69132;44.014;20.918;2024-03-08T13:15:13;6.57;;;5.38;;
79664;SDS011;69132;44.014;20.918;2024-03-08T13:17:47;7.25;;;6.13;;
79664;SDS011;69132;44.014;20.918;2024-03-08T13:20:19;11.57;;;7.28;;
79664;SDS011;69132;44.014;20.918;2024-03-08T13:22:48;5.95;;;5.22;;
79664;SDS011;69132;44.014;20.918;2024-03-08T13:25:14;7.30;;;6.15;;
79664;SDS011;69132;44.014;20.918;2024-03-08T13:27:45;7.00;;;4.88;;
79664;SDS011;69132;44.014;20.918;2024-03-08T13:30:12;5.60;;;5.00;;
79664;SDS011;69132;44.014;20.918;2024-03-08T13:35:11;9.13;;;5.47;;
79664;SDS011;69132;44.014;20.918;2024-03-08T13:37:41;6.63;;;5.00;;
79664;SDS011;69132;44.014;20.918;2024-03-08T13:40:09;10.80;;;6.10;;
79664;SDS011;69132;44.014;20.918;2024-03-08T13:42:40;8.15;;;6.55;;
79664;SDS011;69132;44.014;20.918;2024-03-08T13:47:35;10.35;;;7.18;;
79664;SDS011;69132;44.014;20.918;2024-03-08T13:50:02;16.02;;;7.93;;
79664;SDS011;69132;44.014;20.918;2024-03-08T13:52:29;13.98;;;7.28;;
79664;SDS011;69132;44.014;20.918;2024-03-08T13:54:57;9.25;;;6.55;;
79664;SDS011;69132;44.014;20.918;2024-03-08T13:57:38;5.85;;;4.75;;
79664;SDS011;69132;44.014;20.918;2024-03-08T14:00:04;9.05;;;6.05;;
79664;SDS011;69132;44.014;20.918;2024-03-08T14:02:32;7.97;;;5.18;;
79664;SDS011;69132;44.014;20.918;2024-03-08T14:04:58;11.00;;;7.45;;
79664;SDS011;69132;44.014;20.918;2024-03-08T14:07:26;9.52;;;6.68;;
79664;SDS011;69132;44.014;20.918;2024-03-08T14:09:54;8.38;;;5.95;;
79664;SDS011;69132;44.014;20.918;2024-03-08T14:12:20;5.45;;;4.63;;
79664;SDS011;69132;44.014;20.918;2024-03-08T14:14:52;8.98;;;6.65;;
79664;SDS011;69132;44.014;20.918;2024-03-08T14:17:18;6.28;;;5.45;;
79664;SDS011;69132;44.014;20.918;2024-03-08T14:19:44;7.03;;;5.60;;
79664;SDS011;69132;44.014;20.918;2024-03-08T14:22:10;6.85;;;5.65;;
79664;SDS011;69132;44.014;20.918;2024-03-08T14:27:08;8.02;;;5.45;;
79664;SDS011;69132;44.014;20.918;2024-03-08T14:29:35;5.93;;;4.82;;
79664;SDS011;69132;44.014;20.918;2024-03-08T14:34:31;8.65;;;6.03;;
79664;SDS011;69132;44.014;20.918;2024-03-08T14:36:59;44.28;;;11.02;;
79664;SDS011;69132;44.014;20.918;2024-03-08T14:39:25;11.07;;;6.35;;
79664;SDS011;69132;44.014;20.918;2024-03-08T14:41:54;12.35;;;6.88;;
79664;SDS011;69132;44.014;20.918;2024-03-08T14:44:21;9.32;;;6.22;;
79664;SDS011;69132;44.014;20.918;2024-03-08T14:46:53;10.00;;;6.63;;
79664;SDS011;69132;44.014;20.918;2024-03-08T14:49:20;7.65;;;6.20;;
79664;SDS011;69132;44.014;20.918;2024-03-08T14:51:46;12.88;;;8.43;;
79664;SDS011;69132;44.014;20.918;2024-03-08T14:54:12;13.63;;;9.52;;
79664;SDS011;69132;44.014;20.918;2024-03-08T14:56:38;9.05;;;6.50;;
79664;SDS011;69132;44.014;20.918;2024-03-08T14:59:07;7.68;;;6.10;;
79664;SDS011;69132;44.014;20.918;2024-03-08T15:01:34;7.78;;;6.18;;
79664;SDS011;69132;44.014;20.918;2024-03-08T15:04:03;6.72;;;6.03;;
79664;SDS011;69132;44.014;20.918;2024-03-08T15:06:42;9.98;;;6.40;;
79664;SDS011;69132;44.014;20.918;2024-03-08T15:09:13;7.18;;;5.70;;
79664;SDS011;69132;44.014;20.918;2024-03-08T15:11:46;9.30;;;7.15;;